createdAt,value
2022-07-31T00:00:28.936Z,12.40
2022-07-31T00:02:55.762Z,12.30
2022-07-31T00:05:23.470Z,13.63
2022-07-31T00:07:50.260Z,17.42
2022-07-31T00:10:17.040Z,16.15
2022-07-31T00:12:43.540Z,13.63
2022-07-31T00:15:11.214Z,14.38
2022-07-31T00:17:39.353Z,17.05
2022-07-31T00:20:06.921Z,16.52
2022-07-31T00:22:33.376Z,16.00
2022-07-31T00:24:59.807Z,16.45
2022-07-31T00:27:26.292Z,17.08
2022-07-31T00:29:52.747Z,16.60
2022-07-31T00:32:19.279Z,15.25
2022-07-31T00:34:45.737Z,15.88
2022-07-31T00:37:12.200Z,14.15
2022-07-31T00:39:38.664Z,16.02
2022-07-31T00:42:05.829Z,16.58
2022-07-31T00:44:32.318Z,16.77
2022-07-31T00:46:58.855Z,15.55
2022-07-31T00:49:27.434Z,15.45
2022-07-31T00:52:04.496Z,16.08
2022-07-31T00:54:31.051Z,14.75
2022-07-31T00:56:57.518Z,17.63
2022-07-31T00:59:24.939Z,16.77
2022-07-31T01:01:51.749Z,17.13
2022-07-31T01:04:19.151Z,15.40
2022-07-31T01:06:46.976Z,18.15
2022-07-31T01:09:16.728Z,18.33
2022-07-31T01:12:01.485Z,15.23
2022-07-31T01:14:33.845Z,13.82
2022-07-31T01:17:02.168Z,14.73
2022-07-31T01:19:43.685Z,13.25
2022-07-31T01:22:41.070Z,13.93
2022-07-31T01:25:29.312Z,12.82
2022-07-31T01:28:33.980Z,12.38
2022-07-31T01:31:25.461Z,17.27
2022-07-31T01:34:02.596Z,12.48
2022-07-31T01:36:34.627Z,13.25
2022-07-31T01:39:02.417Z,11.23
2022-07-31T01:41:34.409Z,12.82
2022-07-31T01:44:03.339Z,13.52
2022-07-31T01:46:37.306Z,14.68
2022-07-31T01:49:09.708Z,11.68
2022-07-31T01:51:39.045Z,13.68
2022-07-31T01:54:06.182Z,12.25
2022-07-31T01:56:34.617Z,12.93
2022-07-31T01:59:02.308Z,13.43
2022-07-31T02:01:30.195Z,13.10
2022-07-31T02:04:00.654Z,12.80
2022-07-31T02:06:28.321Z,13.82
2022-07-31T02:08:56.325Z,12.27
2022-07-31T02:11:23.797Z,14.40
2022-07-31T02:13:53.375Z,12.02
2022-07-31T02:16:21.238Z,13.38
2022-07-31T02:18:51.117Z,13.68
2022-07-31T02:21:17.727Z,13.27
2022-07-31T02:23:44.316Z,14.13
2022-07-31T02:26:11.824Z,14.98
2022-07-31T02:28:41.927Z,15.20
2022-07-31T02:31:11.836Z,12.65
2022-07-31T02:33:41.737Z,14.55
2022-07-31T02:36:09.581Z,12.55
2022-07-31T02:38:37.349Z,15.02
2022-07-31T02:41:05.006Z,12.95
2022-07-31T02:43:33.268Z,13.48
2022-07-31T02:46:00.546Z,14.75
2022-07-31T02:48:27.442Z,14.38
2022-07-31T02:50:54.619Z,17.73
2022-07-31T02:53:21.765Z,15.77
2022-07-31T02:55:49.498Z,14.48
2022-07-31T02:58:16.138Z,15.25
2022-07-31T03:00:42.846Z,12.40
2022-07-31T03:03:09.370Z,12.23
2022-07-31T03:05:35.828Z,18.77
2022-07-31T03:08:02.320Z,12.82
2022-07-31T03:10:28.788Z,14.98
2022-07-31T03:12:56.016Z,14.90
2022-07-31T03:15:25.530Z,14.80
2022-07-31T03:17:53.639Z,14.45
2022-07-31T03:20:21.149Z,14.38
2022-07-31T03:22:48.873Z,16.10
2022-07-31T03:25:21.476Z,16.63
2022-07-31T03:27:55.621Z,17.77
2022-07-31T03:30:26.855Z,17.20
2022-07-31T03:32:57.031Z,16.30
2022-07-31T03:35:24.833Z,15.60
2022-07-31T03:37:51.855Z,15.43
2022-07-31T03:40:18.367Z,16.70
2022-07-31T03:42:46.117Z,15.32
2022-07-31T03:45:13.530Z,15.65
2022-07-31T03:47:40.320Z,14.25
2022-07-31T03:50:08.053Z,17.15
2022-07-31T03:52:35.468Z,23.88
2022-07-31T03:55:02.214Z,18.13
2022-07-31T03:57:31.296Z,16.40
2022-07-31T04:00:00.745Z,18.23
2022-07-31T04:02:28.390Z,15.65
2022-07-31T04:04:55.544Z,18.45
2022-07-31T04:07:22.029Z,15.90
2022-07-31T04:09:48.876Z,17.48
2022-07-31T04:12:15.814Z,16.85
2022-07-31T04:14:42.471Z,17.33
2022-07-31T04:17:09.337Z,18.52
2022-07-31T04:19:36.150Z,17.15
2022-07-31T04:22:03.095Z,17.38
2022-07-31T04:24:29.821Z,18.17
2022-07-31T04:26:56.969Z,17.48
2022-07-31T04:29:24.431Z,18.52
2022-07-31T04:31:50.973Z,19.55
2022-07-31T04:34:17.464Z,16.88
2022-07-31T04:36:43.946Z,19.95
2022-07-31T04:39:10.522Z,16.85
2022-07-31T04:41:37.020Z,17.20
2022-07-31T04:44:03.615Z,21.48
2022-07-31T04:46:30.098Z,18.48
2022-07-31T04:48:56.784Z,17.83
2022-07-31T04:51:24.303Z,18.33
2022-07-31T04:53:51.420Z,18.73
2022-07-31T04:56:37.355Z,18.67
2022-07-31T04:59:07.223Z,18.20
2022-07-31T05:01:34.207Z,15.93
2022-07-31T05:04:01.101Z,17.23
2022-07-31T05:06:45.081Z,18.45
2022-07-31T05:09:18.767Z,18.85
2022-07-31T05:11:47.203Z,20.15
2022-07-31T05:14:16.603Z,18.33
2022-07-31T05:16:44.077Z,18.58
2022-07-31T05:19:14.582Z,19.40
2022-07-31T05:24:22.532Z,17.20
2022-07-31T05:26:59.209Z,16.05
2022-07-31T05:29:25.858Z,19.27
2022-07-31T05:31:59.950Z,22.40
2022-07-31T05:34:30.145Z,18.60
2022-07-31T05:36:58.586Z,21.95
2022-07-31T05:39:25.265Z,18.67
2022-07-31T05:41:52.755Z,18.48
2022-07-31T05:44:19.398Z,21.17
2022-07-31T05:46:45.882Z,17.63
2022-07-31T05:49:12.646Z,21.45
2022-07-31T05:51:42.397Z,17.27
2022-07-31T05:54:08.858Z,16.60
2022-07-31T05:56:35.404Z,16.20
2022-07-31T05:59:01.832Z,13.55
2022-07-31T06:01:28.437Z,14.68
2022-07-31T06:03:55.009Z,15.88
2022-07-31T06:06:21.445Z,13.95
2022-07-31T06:08:47.982Z,12.07
2022-07-31T06:11:14.454Z,13.32
2022-07-31T06:13:43.249Z,11.52
2022-07-31T06:16:13.949Z,13.45
2022-07-31T06:18:40.857Z,9.68
2022-07-31T06:21:07.351Z,10.57
2022-07-31T06:23:33.946Z,8.95
2022-07-31T06:26:00.814Z,9.70
2022-07-31T06:28:47.552Z,9.98
2022-07-31T06:31:19.345Z,11.07
2022-07-31T06:33:48.008Z,10.52
2022-07-31T06:36:14.814Z,10.40
2022-07-31T06:38:41.324Z,7.47
2022-07-31T06:41:07.850Z,8.30
2022-07-31T06:43:34.314Z,8.88
2022-07-31T06:46:00.760Z,9.23
2022-07-31T06:48:27.257Z,8.98
2022-07-31T06:51:14.561Z,9.77
2022-07-31T06:53:41.421Z,12.52
2022-07-31T06:56:07.877Z,9.93
2022-07-31T06:58:34.346Z,10.50
2022-07-31T07:01:00.817Z,13.48
2022-07-31T07:03:27.281Z,9.75
2022-07-31T07:05:53.746Z,10.70
2022-07-31T07:08:20.261Z,13.05
2022-07-31T07:10:46.762Z,13.05
2022-07-31T07:13:13.242Z,14.43
2022-07-31T07:15:39.723Z,12.40
2022-07-31T07:18:06.898Z,10.65
2022-07-31T07:20:33.839Z,10.98
2022-07-31T07:23:00.279Z,11.55
2022-07-31T07:25:26.758Z,11.65
2022-07-31T07:27:53.767Z,13.70
2022-07-31T07:30:20.361Z,9.05
2022-07-31T07:32:46.851Z,9.95
2022-07-31T07:35:13.651Z,10.25
2022-07-31T07:37:41.379Z,10.85
2022-07-31T07:40:09.049Z,8.85
2022-07-31T07:42:35.528Z,7.90
2022-07-31T07:45:02.242Z,11.38
2022-07-31T07:47:54.158Z,8.82
2022-07-31T07:50:20.275Z,8.07
2022-07-31T07:52:47.413Z,12.40
2022-07-31T07:55:13.937Z,9.88
2022-07-31T07:57:43.501Z,9.65
2022-07-31T08:00:11.487Z,8.55
2022-07-31T08:02:38.420Z,10.27
2022-07-31T08:05:06.937Z,8.45
2022-07-31T08:07:42.167Z,9.20
2022-07-31T08:10:10.104Z,9.88
2022-07-31T08:12:36.765Z,9.10
2022-07-31T08:15:04.410Z,8.05
2022-07-31T08:17:31.070Z,9.48
2022-07-31T08:19:57.679Z,8.52
2022-07-31T08:22:24.177Z,9.45
2022-07-31T08:24:50.637Z,10.00
2022-07-31T08:27:39.256Z,9.27
2022-07-31T08:30:07.875Z,9.80
2022-07-31T08:32:34.449Z,8.25
2022-07-31T08:35:00.943Z,9.95
2022-07-31T08:37:59.319Z,9.15
2022-07-31T08:40:14.005Z,10.38
2022-07-31T08:42:40.562Z,9.98
2022-07-31T08:45:08.326Z,7.97
2022-07-31T08:47:36.075Z,10.70
2022-07-31T08:50:05.528Z,10.07
2022-07-31T08:52:34.638Z,9.27
2022-07-31T08:55:06.674Z,12.65
2022-07-31T08:57:33.650Z,8.35
2022-07-31T09:00:00.115Z,8.68
2022-07-31T09:02:26.633Z,9.45
2022-07-31T09:04:53.188Z,9.48
2022-07-31T09:07:19.707Z,8.13
2022-07-31T09:09:51.472Z,9.07
2022-07-31T09:12:34.400Z,8.07
2022-07-31T09:15:01.417Z,7.78
2022-07-31T09:17:35.827Z,9.07
2022-07-31T09:20:04.155Z,9.90
2022-07-31T09:22:31.258Z,8.68
2022-07-31T09:25:11.868Z,9.95
2022-07-31T09:27:38.844Z,10.65
2022-07-31T09:30:06.254Z,8.35
2022-07-31T09:32:32.712Z,10.52
2022-07-31T09:35:13.136Z,7.45
2022-07-31T09:40:08.228Z,8.70
2022-07-31T09:42:55.457Z,7.80
2022-07-31T09:45:23.686Z,8.85
2022-07-31T09:48:15.134Z,8.63
2022-07-31T09:50:59.796Z,8.80
2022-07-31T09:53:27.092Z,8.70
2022-07-31T09:55:56.085Z,8.85
2022-07-31T09:58:23.725Z,7.57
2022-07-31T10:00:52.619Z,8.57
2022-07-31T10:03:20.260Z,9.20
2022-07-31T10:05:47.913Z,8.73
2022-07-31T10:08:17.253Z,8.15
2022-07-31T10:10:45.090Z,7.20
2022-07-31T10:13:15.491Z,7.20
2022-07-31T10:15:42.650Z,7.82
2022-07-31T10:18:09.940Z,10.13
2022-07-31T10:20:37.691Z,7.35
2022-07-31T10:23:14.357Z,7.38
2022-07-31T10:25:53.263Z,8.57
2022-07-31T10:28:21.904Z,7.47
2022-07-31T10:30:49.292Z,8.70
2022-07-31T10:33:41.912Z,5.68
2022-07-31T10:36:11.266Z,3.90
2022-07-31T10:38:47.815Z,4.05
2022-07-31T10:41:41.982Z,4.13
2022-07-31T10:44:13.580Z,5.65
2022-07-31T10:46:40.195Z,3.85
2022-07-31T10:49:08.729Z,4.20
2022-07-31T10:51:46.457Z,4.97
2022-07-31T10:54:14.197Z,4.05
2022-07-31T10:56:45.205Z,4.90
2022-07-31T10:59:12.234Z,6.78
2022-07-31T11:01:55.035Z,5.55
2022-07-31T11:04:31.869Z,5.07
2022-07-31T11:06:59.122Z,5.95
2022-07-31T11:09:27.937Z,8.35
2022-07-31T11:11:55.450Z,3.58
2022-07-31T11:14:32.893Z,4.45
2022-07-31T11:16:59.493Z,6.85
2022-07-31T11:19:36.577Z,5.40
2022-07-31T11:22:32.224Z,3.58
2022-07-31T11:25:00.692Z,6.13
2022-07-31T11:27:34.141Z,6.63
2022-07-31T11:30:13.142Z,4.38
2022-07-31T11:32:41.007Z,3.60
2022-07-31T11:35:08.218Z,3.20
2022-07-31T11:37:46.222Z,6.40
2022-07-31T11:40:22.482Z,3.15
2022-07-31T11:43:23.229Z,4.80
2022-07-31T11:45:52.755Z,6.70
2022-07-31T11:48:21.171Z,5.30
2022-07-31T11:50:49.753Z,4.03
2022-07-31T11:53:17.620Z,5.10
2022-07-31T11:55:55.834Z,3.15
2022-07-31T11:58:24.280Z,8.20
2022-07-31T12:00:52.105Z,3.45
2022-07-31T12:03:21.193Z,5.78
2022-07-31T12:05:50.386Z,2.58
2022-07-31T12:08:17.013Z,3.90
2022-07-31T12:10:43.956Z,3.47
2022-07-31T12:13:15.759Z,5.32
2022-07-31T12:16:00.698Z,6.05
2022-07-31T12:18:29.183Z,3.55
2022-07-31T12:20:59.815Z,2.83
2022-07-31T12:23:40.619Z,2.15
2022-07-31T12:26:10.635Z,3.10
2022-07-31T12:28:37.633Z,1.75
2022-07-31T12:31:04.582Z,3.22
2022-07-31T12:33:40.549Z,2.03
2022-07-31T12:36:18.602Z,2.15
2022-07-31T12:38:48.888Z,2.97
2022-07-31T12:41:16.288Z,6.18
2022-07-31T12:43:51.859Z,2.75
2022-07-31T12:46:36.295Z,2.85
2022-07-31T12:49:04.444Z,6.80
2022-07-31T12:51:45.181Z,3.05
2022-07-31T12:54:14.880Z,1.98
2022-07-31T12:56:42.308Z,5.15
2022-07-31T12:59:09.647Z,4.97
2022-07-31T13:01:36.853Z,2.50
2022-07-31T13:04:05.583Z,4.97
2022-07-31T13:06:34.863Z,3.05
2022-07-31T13:09:01.398Z,3.03
2022-07-31T13:11:46.427Z,3.83
2022-07-31T13:14:19.591Z,2.13
2022-07-31T13:16:47.321Z,2.60
2022-07-31T13:19:15.011Z,3.10
2022-07-31T13:21:49.274Z,5.65
2022-07-31T13:24:20.611Z,2.17
2022-07-31T13:26:48.397Z,1.63
2022-07-31T13:29:15.773Z,2.70
2022-07-31T13:47:15.202Z,3.22
2022-07-31T13:49:41.847Z,2.42
2022-07-31T13:52:08.556Z,1.95
2022-07-31T13:54:35.079Z,2.83
2022-07-31T13:57:01.671Z,2.78
2022-07-31T13:59:29.271Z,2.60
2022-07-31T14:02:13.503Z,2.30
2022-07-31T14:04:40.459Z,1.50
2022-07-31T14:07:08.150Z,2.35
2022-07-31T14:09:35.899Z,3.70
2022-07-31T14:12:03.633Z,2.25
2022-07-31T14:14:30.913Z,1.90
2022-07-31T14:16:57.456Z,1.80
2022-07-31T14:19:23.938Z,1.42
2022-07-31T14:21:56.909Z,4.18
2022-07-31T14:24:24.888Z,5.20
2022-07-31T14:26:51.627Z,2.15
2022-07-31T14:29:18.160Z,1.92
2022-07-31T14:31:44.622Z,1.50
2022-07-31T14:34:11.144Z,1.58
2022-07-31T14:36:37.828Z,2.30
2022-07-31T14:39:04.363Z,2.63
2022-07-31T14:41:30.875Z,4.10
2022-07-31T14:43:57.468Z,6.78
2022-07-31T14:46:23.970Z,1.20
2022-07-31T14:48:50.649Z,1.90
2022-07-31T14:51:18.581Z,1.40
2022-07-31T14:53:46.163Z,1.17
2022-07-31T14:56:12.777Z,1.90
2022-07-31T14:58:58.083Z,1.50
2022-07-31T15:01:30.769Z,2.88
2022-07-31T15:03:57.866Z,1.40
2022-07-31T15:06:40.035Z,1.63
2022-07-31T15:09:12.127Z,2.22
2022-07-31T15:12:00.038Z,1.65
2022-07-31T15:14:28.505Z,1.13
2022-07-31T15:16:54.959Z,1.73
2022-07-31T15:19:21.472Z,4.18
2022-07-31T15:22:11.242Z,2.28
2022-07-31T15:24:34.496Z,2.20
2022-07-31T15:27:01.022Z,2.03
2022-07-31T15:30:05.765Z,1.75
2022-07-31T15:32:14.097Z,1.08
2022-07-31T15:34:40.601Z,1.60
2022-07-31T15:37:07.661Z,2.20
2022-07-31T15:39:34.447Z,2.83
2022-07-31T15:42:01.988Z,2.45
2022-07-31T15:44:29.009Z,3.08
2022-07-31T15:46:55.670Z,1.80
2022-07-31T15:49:23.250Z,1.95
2022-07-31T15:51:49.781Z,2.78
2022-07-31T15:54:16.370Z,2.08
2022-07-31T15:56:42.938Z,1.25
2022-07-31T15:59:09.421Z,1.35
2022-07-31T16:01:37.573Z,1.60
2022-07-31T16:04:16.329Z,3.22
2022-07-31T16:06:49.084Z,10.37
2022-07-31T16:09:17.144Z,1.90
2022-07-31T16:12:03.509Z,3.17
2022-07-31T16:14:30.217Z,3.80
2022-07-31T16:16:57.516Z,1.13
2022-07-31T16:19:25.130Z,2.22
2022-07-31T16:21:53.057Z,1.98
2022-07-31T16:24:22.322Z,2.55
2022-07-31T16:26:49.794Z,1.45
2022-07-31T16:29:17.749Z,2.65
2022-07-31T16:32:04.331Z,13.27
2022-07-31T16:34:30.927Z,2.97
2022-07-31T16:36:57.562Z,2.42
2022-07-31T16:39:24.227Z,2.13
2022-07-31T16:41:54.248Z,1.48
2022-07-31T16:44:21.665Z,2.55
2022-07-31T16:46:52.734Z,2.90
2022-07-31T16:49:28.255Z,3.92
2022-07-31T16:52:01.874Z,1.90
2022-07-31T16:54:28.690Z,2.13
2022-07-31T16:56:55.267Z,2.70
2022-07-31T16:59:21.781Z,1.77
2022-07-31T17:01:59.232Z,3.55
2022-07-31T17:04:27.428Z,1.58
2022-07-31T17:06:54.687Z,1.83
2022-07-31T17:09:21.924Z,2.55
2022-07-31T17:11:50.868Z,3.08
2022-07-31T17:14:19.497Z,2.17
2022-07-31T17:16:48.806Z,4.22
2022-07-31T17:19:42.301Z,1.52
2022-07-31T17:22:07.861Z,1.95
2022-07-31T17:24:37.139Z,2.42
2022-07-31T17:27:06.914Z,2.87
2022-07-31T17:29:33.839Z,1.38
2022-07-31T17:32:00.415Z,2.63
2022-07-31T17:34:28.010Z,2.95
2022-07-31T17:36:54.790Z,4.90
2022-07-31T17:39:21.316Z,4.28
2022-07-31T17:41:47.915Z,2.40
2022-07-31T17:44:14.838Z,3.45
2022-07-31T17:46:43.886Z,3.92
2022-07-31T17:49:19.513Z,4.57
2022-07-31T17:51:57.663Z,18.15
2022-07-31T17:54:27.772Z,23.48
2022-07-31T17:56:54.553Z,25.30
2022-07-31T17:59:21.160Z,11.93
2022-07-31T18:01:51.768Z,10.48
2022-07-31T18:04:19.308Z,7.05
2022-07-31T18:06:45.791Z,7.85
2022-07-31T18:09:12.278Z,4.15
2022-07-31T18:11:38.761Z,3.15
2022-07-31T18:14:05.252Z,3.10
2022-07-31T18:16:31.848Z,2.83
2022-07-31T18:18:58.393Z,2.00
2022-07-31T18:21:24.911Z,3.42
2022-07-31T18:23:51.427Z,3.95
2022-07-31T18:26:17.897Z,4.70
2022-07-31T18:28:44.429Z,1.88
2022-07-31T18:31:30.780Z,8.45
2022-07-31T18:33:57.444Z,6.57
2022-07-31T18:36:23.955Z,2.60
2022-07-31T18:38:52.025Z,2.63
2022-07-31T18:41:19.008Z,6.65
2022-07-31T18:43:45.572Z,7.85
2022-07-31T18:46:12.139Z,4.47
2022-07-31T18:48:38.672Z,3.83
2022-07-31T18:51:05.763Z,2.90
2022-07-31T18:53:33.512Z,7.35
2022-07-31T18:56:00.021Z,4.80
2022-07-31T18:58:26.811Z,3.67
2022-07-31T19:00:55.101Z,3.15
2022-07-31T19:03:23.353Z,3.55
2022-07-31T19:05:52.211Z,6.32
2022-07-31T19:08:19.430Z,2.72
2022-07-31T19:10:45.984Z,1.73
2022-07-31T19:13:17.242Z,2.00
2022-07-31T19:15:47.472Z,1.92
2022-07-31T19:18:14.249Z,5.60
2022-07-31T19:20:59.921Z,2.08
2022-07-31T19:23:31.577Z,3.38
2022-07-31T19:26:03.507Z,2.67
2022-07-31T19:28:34.897Z,4.63
2022-07-31T19:31:01.906Z,4.40
2022-07-31T19:33:28.586Z,2.80
2022-07-31T19:36:00.710Z,2.40
2022-07-31T19:38:29.228Z,7.25
2022-07-31T19:40:55.789Z,4.03
2022-07-31T19:43:22.317Z,3.28
2022-07-31T19:46:01.946Z,3.33
2022-07-31T19:48:36.624Z,2.30
2022-07-31T19:51:03.733Z,2.80
2022-07-31T19:53:30.335Z,4.60
2022-07-31T19:55:57.393Z,3.15
2022-07-31T19:58:23.890Z,2.35
2022-07-31T20:00:50.521Z,6.43
2022-07-31T20:03:17.174Z,4.75
2022-07-31T20:05:43.723Z,7.13
2022-07-31T20:08:10.450Z,7.43
2022-07-31T20:10:37.228Z,6.75
2022-07-31T20:13:04.148Z,6.03
2022-07-31T20:15:51.490Z,7.13
2022-07-31T20:18:25.197Z,7.70
2022-07-31T20:21:08.557Z,3.35
2022-07-31T20:23:38.532Z,5.65
2022-07-31T20:26:06.766Z,4.85
2022-07-31T20:28:33.313Z,5.82
2022-07-31T20:30:59.870Z,2.88
2022-07-31T20:33:26.383Z,6.82
2022-07-31T20:35:53.060Z,6.65
2022-07-31T20:38:23.668Z,5.20
2022-07-31T20:40:53.548Z,7.78
2022-07-31T20:43:27.026Z,8.30
2022-07-31T20:45:57.264Z,9.07
2022-07-31T20:48:27.029Z,7.78
2022-07-31T20:50:53.575Z,4.65
2022-07-31T20:53:21.553Z,5.45
2022-07-31T20:55:49.928Z,4.30
2022-07-31T20:58:21.680Z,5.47
2022-07-31T21:00:49.623Z,6.43
2022-07-31T21:03:17.537Z,5.32
2022-07-31T21:05:45.216Z,6.15
2022-07-31T21:08:13.295Z,5.45
2022-07-31T21:10:39.885Z,5.40
2022-07-31T21:13:06.406Z,6.65
2022-07-31T21:15:42.218Z,4.05
2022-07-31T21:18:15.522Z,4.47
2022-07-31T21:20:51.550Z,3.72
2022-07-31T21:23:24.669Z,6.30
2022-07-31T21:25:55.997Z,7.05
2022-07-31T21:28:23.647Z,4.00
2022-07-31T21:30:50.605Z,5.05
2022-07-31T21:33:18.282Z,3.45
2022-07-31T21:35:45.813Z,4.43
2022-07-31T21:38:15.035Z,5.07
2022-07-31T21:40:41.925Z,6.60
2022-07-31T21:43:09.633Z,4.80
2022-07-31T21:45:50.809Z,3.38
2022-07-31T21:48:23.720Z,3.95
2022-07-31T21:50:51.023Z,5.68
2022-07-31T21:53:17.516Z,5.35
2022-07-31T21:55:44.106Z,6.50
2022-07-31T21:58:10.742Z,7.93
2022-07-31T22:00:37.647Z,5.28
2022-07-31T22:03:04.630Z,5.05
2022-07-31T22:05:50.251Z,5.70
2022-07-31T22:08:16.993Z,6.82
2022-07-31T22:10:43.755Z,16.42
2022-07-31T22:13:10.285Z,12.85
2022-07-31T22:15:52.762Z,11.55
2022-07-31T22:18:26.409Z,10.73
2022-07-31T22:20:53.574Z,9.23
2022-07-31T22:23:20.392Z,9.57
2022-07-31T22:25:49.170Z,9.85
2022-07-31T22:28:18.889Z,10.40
2022-07-31T22:30:45.799Z,16.93
2022-07-31T22:33:12.656Z,13.02
2022-07-31T22:35:40.731Z,12.35
2022-07-31T22:38:08.528Z,11.77
2022-07-31T22:40:35.290Z,12.82
2022-07-31T22:43:02.646Z,15.20
2022-07-31T22:45:30.208Z,20.77
2022-07-31T22:47:57.558Z,15.93
2022-07-31T22:50:24.176Z,13.75
2022-07-31T22:52:50.780Z,16.77
2022-07-31T22:55:17.413Z,14.98
2022-07-31T22:57:44.906Z,15.60
2022-07-31T23:00:13.919Z,14.70
2022-07-31T23:02:42.151Z,16.38
2022-07-31T23:05:09.049Z,18.50
2022-07-31T23:07:35.572Z,15.98
2022-07-31T23:10:02.235Z,9.77
2022-07-31T23:12:29.541Z,11.60
2022-07-31T23:14:56.363Z,8.65
2022-07-31T23:17:23.558Z,10.43
2022-07-31T23:19:54.166Z,8.57
2022-07-31T23:22:30.883Z,8.68
2022-07-31T23:25:00.344Z,9.32
2022-07-31T23:27:26.886Z,9.13
2022-07-31T23:29:53.514Z,9.20
2022-07-31T23:32:20.013Z,10.60
2022-07-31T23:34:46.503Z,11.00
2022-07-31T23:37:13.070Z,10.45
2022-07-31T23:39:40.056Z,11.00
2022-07-31T23:42:25.376Z,10.75
2022-07-31T23:44:51.922Z,11.13
2022-07-31T23:47:19.358Z,16.75
2022-07-31T23:49:46.459Z,10.18
2022-07-31T23:52:13.076Z,11.07
2022-07-31T23:54:39.657Z,10.90
2022-07-31T23:57:06.179Z,10.93
2022-07-31T23:59:32.716Z,11.10
